Time;durP1;ratioP1;P1;durP2;ratioP2;P2;SDS_P1;SDS_P2;PMS_P1;PMS_P2;Temp;Humidity;BMP_temperature;BMP_pressure;BME280_temperature;BME280_humidity;BME280_pressure;Samples;Min_cycle;Max_cycle;Signal;HPM_P1;HPM_P2
2024/03/06 00:02:07;;;;;;;4.35;2.45;;;;;;;-145.63;100.00;61273.97;5006659;28;20026;-65
2024/03/06 00:04:33;;;;;;;4.47;2.55;;;;;;;-145.63;100.00;61273.97;4998717;28;20042;-65
2024/03/06 00:06:59;;;;;;;5.20;2.78;;;;;;;-145.63;100.00;61273.97;5004106;28;20037;-65
2024/03/06 00:09:28;;;;;;;4.45;2.50;;;;;;;-145.63;100.00;61273.97;5007446;28;20395;-64
2024/03/06 00:11:55;;;;;;;4.05;2.40;;;;;;;-145.63;100.00;61273.97;4995725;28;20049;-66
2024/03/06 00:14:21;;;;;;;5.18;2.70;;;;;;;-145.63;100.00;61273.97;5013735;28;20034;-66
2024/03/06 00:16:50;;;;;;;6.22;2.60;;;;;;;-145.63;100.00;61273.97;4996334;28;20030;-66
2024/03/06 00:19:17;;;;;;;4.07;2.60;;;;;;;-145.63;100.00;61273.97;5006027;28;20034;-65
2024/03/06 00:21:43;;;;;;;5.65;2.78;;;;;;;-145.63;100.00;61273.97;5005056;28;20026;-65
2024/03/06 00:24:08;;;;;;;4.22;2.40;;;;;;;-145.63;100.00;61273.97;4999830;28;20030;-67
2024/03/06 00:26:34;;;;;;;4.72;2.50;;;;;;;-145.63;100.00;61273.97;5017765;28;20403;-65
2024/03/06 00:29:00;;;;;;;6.05;2.63;;;;;;;-145.63;100.00;61273.97;4999225;28;20045;-65
2024/03/06 00:31:25;;;;;;;4.30;2.45;;;;;;;-145.63;100.00;61273.97;5011562;28;20034;-65
2024/03/06 00:33:51;;;;;;;4.60;2.60;;;;;;;-145.63;100.00;61273.97;5007824;28;20057;-66
2024/03/06 00:36:17;;;;;;;3.08;2.45;;;;;;;-145.63;100.00;61273.97;4997346;28;20392;-64
2024/03/06 00:38:43;;;;;;;4.15;2.53;;;;;;;-145.63;100.00;61273.97;4997681;28;20030;-66
2024/03/06 00:41:08;;;;;;;3.67;2.45;;;;;;;-145.63;100.00;61273.97;4997211;28;20030;-65
2024/03/06 00:43:34;;;;;;;3.47;2.22;;;;;;;-145.63;100.00;61273.97;5012513;28;20032;-66
2024/03/06 00:46:00;;;;;;;4.85;2.85;;;;;;;-145.63;100.00;61273.97;5007004;28;20046;-66
2024/03/06 00:48:25;;;;;;;3.20;2.63;;;;;;;-145.63;100.00;61273.97;5000884;28;20046;-66
2024/03/06 00:50:51;;;;;;;4.72;2.85;;;;;;;-145.63;100.00;61273.97;5008068;28;20026;-67
2024/03/06 00:53:17;;;;;;;4.50;2.35;;;;;;;-145.63;100.00;61273.97;5016161;28;20048;-67
2024/03/06 00:55:42;;;;;;;4.43;2.72;;;;;;;-145.63;100.00;61273.97;5009676;28;20041;-65
2024/03/06 00:58:08;;;;;;;5.30;2.50;;;;;;;-145.63;100.00;61273.97;5016712;28;20041;-62
2024/03/06 01:00:34;;;;;;;4.28;2.40;;;;;;;-145.63;100.00;61273.97;5016585;28;20037;-65
2024/03/06 01:02:59;;;;;;;3.30;2.33;;;;;;;-145.63;100.00;61273.97;5014782;28;20053;-64
2024/03/06 01:05:25;;;;;;;4.75;2.65;;;;;;;-145.63;100.00;61273.97;4996780;28;20042;-65
2024/03/06 01:07:51;;;;;;;3.47;2.70;;;;;;;-145.63;100.00;61273.97;5013666;28;20026;-66
2024/03/06 01:10:16;;;;;;;4.70;2.60;;;;;;;-145.63;100.00;61273.97;5016470;28;20030;-67
2024/03/06 01:12:46;;;;;;;4.47;2.58;;;;;;;-145.63;100.00;61273.97;5009023;28;20464;-65
2024/03/06 01:15:12;;;;;;;4.78;2.55;;;;;;;-145.63;100.00;61273.97;5000206;28;20085;-64
2024/03/06 01:17:37;;;;;;;3.53;2.70;;;;;;;-145.63;100.00;61273.97;4996693;28;20026;-64
2024/03/06 01:20:06;;;;;;;7.30;3.00;;;;;;;-145.63;100.00;61273.97;5015372;28;20109;-65
2024/03/06 01:22:33;;;;;;;4.25;2.80;;;;;;;-145.63;100.00;61273.97;5002168;28;20434;-64
2024/03/06 01:25:00;;;;;;;4.75;2.60;;;;;;;-145.63;100.00;61273.97;5006704;28;20096;-65
2024/03/06 01:27:26;;;;;;;3.40;2.47;;;;;;;-145.63;100.00;61273.97;5021275;28;20033;-65
2024/03/06 01:29:52;;;;;;;3.10;2.50;;;;;;;-145.63;100.00;61273.97;5035350;28;20044;-65
2024/03/06 01:32:18;;;;;;;3.92;2.70;;;;;;;-145.63;100.00;61273.97;5016066;28;20038;-64
2024/03/06 01:34:43;;;;;;;5.22;2.72;;;;;;;-145.63;100.00;61273.97;5014975;28;20034;-64
2024/03/06 01:37:09;;;;;;;5.53;3.03;;;;;;;-145.63;100.00;61273.97;5004229;28;20045;-65
2024/03/06 01:39:35;;;;;;;3.88;2.50;;;;;;;-145.63;100.00;61273.97;4996400;28;20456;-65
2024/03/06 01:42:03;;;;;;;4.68;2.80;;;;;;;-145.63;100.00;61273.97;4998125;28;20435;-65
2024/03/06 01:44:29;;;;;;;5.60;2.97;;;;;;;-145.63;100.00;61273.97;5016055;28;20153;-66
2024/03/06 01:46:55;;;;;;;3.90;2.88;;;;;;;-145.63;100.00;61273.97;5016142;28;20069;-65
2024/03/06 01:49:22;;;;;;;4.30;2.60;;;;;;;-145.63;100.00;61273.97;5015577;28;20033;-65
2024/03/06 01:51:53;;;;;;;5.50;3.45;;;;;;;-145.63;100.00;61273.97;5023708;28;20460;-65
2024/03/06 01:54:19;;;;;;;7.38;4.00;;;;;;;-145.63;100.00;61273.97;5031186;28;20038;-65
2024/03/06 01:56:47;;;;;;;6.72;3.00;;;;;;;-145.63;100.00;61273.97;5015694;28;20482;-65
2024/03/06 01:59:15;;;;;;;5.07;2.72;;;;;;;-145.63;100.00;61273.97;4996181;28;20034;-66
2024/03/06 02:01:41;;;;;;;4.75;3.00;;;;;;;-145.63;100.00;61273.97;5011429;28;20022;-65
2024/03/06 02:04:11;;;;;;;4.82;3.00;;;;;;;-145.63;100.00;61273.97;5015407;28;20088;-65
2024/03/06 02:06:39;;;;;;;3.85;2.72;;;;;;;-145.63;100.00;61273.97;5015538;28;20034;-65
2024/03/06 02:09:06;;;;;;;5.45;2.92;;;;;;;-145.63;100.00;61273.97;5013004;28;20026;-66
2024/03/06 02:11:32;;;;;;;6.38;3.20;;;;;;;-145.63;100.00;61273.97;4995719;28;20117;-65
2024/03/06 02:13:58;;;;;;;5.53;2.72;;;;;;;-145.63;100.00;61273.97;5013594;28;20030;-66
2024/03/06 02:16:24;;;;;;;5.25;2.83;;;;;;;-145.63;100.00;61273.97;5014270;28;20498;-65
2024/03/06 02:18:54;;;;;;;3.65;2.70;;;;;;;-145.63;100.00;61273.97;5007201;28;20038;-65
2024/03/06 02:21:24;;;;;;;5.53;3.03;;;;;;;-145.63;100.00;61273.97;5004731;28;20030;-67
2024/03/06 02:23:54;;;;;;;4.88;2.75;;;;;;;-145.63;100.00;61273.97;5015228;28;20034;-66
2024/03/06 02:26:21;;;;;;;4.63;3.13;;;;;;;-145.63;100.00;61273.97;4995651;28;20039;-65
2024/03/06 02:28:51;;;;;;;4.50;3.05;;;;;;;-145.63;100.00;61273.97;5011812;28;20042;-68
2024/03/06 02:31:18;;;;;;;6.38;3.35;;;;;;;-145.63;100.00;61273.97;5003697;28;20037;-66
2024/03/06 02:33:47;;;;;;;3.83;2.83;;;;;;;-145.63;100.00;61273.97;5002949;28;20046;-66
2024/03/06 02:36:16;;;;;;;4.82;3.67;;;;;;;-145.63;100.00;61273.97;5014239;28;20033;-65
2024/03/06 02:38:43;;;;;;;6.82;3.75;;;;;;;-145.63;100.00;61273.97;5015309;28;20037;-64
2024/03/06 02:41:09;;;;;;;5.82;3.40;;;;;;;-145.63;100.00;61273.97;5014837;28;20475;-65
2024/03/06 02:43:35;;;;;;;5.88;3.78;;;;;;;-145.63;100.00;61273.97;5001042;28;20053;-65
2024/03/06 02:46:01;;;;;;;7.45;4.32;;;;;;;-145.63;100.00;61273.97;5003808;28;20026;-66
2024/03/06 02:48:26;;;;;;;8.48;4.28;;;;;;;-145.63;100.00;61273.97;5009675;28;20032;-65
2024/03/06 02:50:52;;;;;;;8.00;4.35;;;;;;;-145.63;100.00;61273.97;4995309;28;20026;-64
2024/03/06 02:53:18;;;;;;;13.05;4.72;;;;;;;-145.63;100.00;61273.97;5014199;28;20460;-63
2024/03/06 02:55:44;;;;;;;7.95;4.13;;;;;;;-145.63;100.00;61273.97;4999818;28;20023;-66
2024/03/06 02:58:09;;;;;;;8.57;4.50;;;;;;;-145.63;100.00;61273.97;5005199;28;20491;-65
2024/03/06 03:00:35;;;;;;;5.88;3.92;;;;;;;-145.63;100.00;61273.97;5009228;28;20058;-65
2024/03/06 03:03:01;;;;;;;7.80;4.95;;;;;;;-145.63;100.00;61273.97;5013483;28;20038;-66
2024/03/06 03:05:26;;;;;;;9.57;4.60;;;;;;;-145.63;100.00;61273.97;4994865;28;20053;-65
2024/03/06 03:07:52;;;;;;;8.98;5.03;;;;;;;-145.63;100.00;61273.97;5011217;28;20116;-65
2024/03/06 03:10:18;;;;;;;10.85;6.15;;;;;;;-145.63;100.00;61273.97;5005540;28;20310;-64
2024/03/06 03:12:44;;;;;;;10.50;5.15;;;;;;;-145.63;100.00;61273.97;5014534;28;20037;-66
2024/03/06 03:15:10;;;;;;;8.85;5.07;;;;;;;-145.63;100.00;61273.97;5014217;28;20038;-67
2024/03/06 03:17:35;;;;;;;11.23;5.43;;;;;;;-145.63;100.00;61273.97;5014209;28;20068;-65
2024/03/06 03:20:20;;;;;;;14.10;5.32;;;;;;;-145.63;100.00;61273.97;4996672;28;20113;-64
2024/03/06 03:22:46;;;;;;;9.38;4.90;;;;;;;-145.63;100.00;61273.97;5034798;28;20410;-65
2024/03/06 03:25:13;;;;;;;8.15;4.82;;;;;;;-145.63;100.00;61273.97;5042595;28;20041;-66
2024/03/06 03:27:43;;;;;;;9.48;5.25;;;;;;;-145.63;100.00;61273.97;5034923;28;20037;-65
2024/03/06 03:30:12;;;;;;;9.32;5.18;;;;;;;-145.63;100.00;61273.97;5031556;28;20486;-65
2024/03/06 03:32:38;;;;;;;7.93;4.55;;;;;;;-145.63;100.00;61273.97;5013964;28;20062;-65
2024/03/06 03:35:05;;;;;;;8.38;4.28;;;;;;;-145.63;100.00;61273.97;5012888;28;20388;-66
2024/03/06 03:37:31;;;;;;;8.20;4.40;;;;;;;-145.63;100.00;61273.97;5007796;28;20387;-65
2024/03/06 03:39:59;;;;;;;7.75;4.35;;;;;;;-145.63;100.00;61273.97;4994589;28;20137;-66
2024/03/06 03:42:24;;;;;;;9.57;4.50;;;;;;;-145.63;100.00;61273.97;4998020;28;20125;-65
2024/03/06 03:44:50;;;;;;;6.90;3.88;;;;;;;-145.63;100.00;61273.97;5014238;28;20489;-66
2024/03/06 03:47:16;;;;;;;6.32;3.65;;;;;;;-145.63;100.00;61273.97;5003127;28;20108;-66
2024/03/06 03:49:42;;;;;;;9.85;4.20;;;;;;;-145.63;100.00;61273.97;5013534;28;20073;-64
2024/03/06 03:52:08;;;;;;;9.75;6.53;;;;;;;-145.63;100.00;61273.97;5013553;28;20033;-66
2024/03/06 03:54:35;;;;;;;7.00;4.40;;;;;;;-145.63;100.00;61273.97;5008697;28;20038;-65
2024/03/06 03:57:01;;;;;;;7.05;4.30;;;;;;;-145.63;100.00;61273.97;4994438;28;20460;-66
2024/03/06 03:59:26;;;;;;;9.18;4.28;;;;;;;-145.63;100.00;61273.97;5012877;28;20065;-67
2024/03/06 04:01:52;;;;;;;5.10;3.45;;;;;;;-145.63;100.00;61273.97;5009214;28;20068;-66
2024/03/06 04:04:18;;;;;;;6.43;4.13;;;;;;;-145.63;100.00;61273.97;5002542;28;20030;-64
2024/03/06 04:06:45;;;;;;;6.82;3.80;;;;;;;-145.63;100.00;61273.97;4999010;28;20029;-64
2024/03/06 04:09:11;;;;;;;7.03;4.00;;;;;;;-145.63;100.00;61273.97;5011466;28;20038;-65
2024/03/06 04:11:37;;;;;;;5.32;4.03;;;;;;;-145.63;100.00;61273.97;4993680;28;20041;-65
2024/03/06 04:14:08;;;;;;;6.07;3.55;;;;;;;-145.63;100.00;61273.97;5010485;28;20061;-65
2024/03/06 04:16:34;;;;;;;7.10;3.40;;;;;;;-145.63;100.00;61273.97;4998227;28;20105;-64
2024/03/06 04:19:01;;;;;;;9.43;3.88;;;;;;;-145.63;100.00;61273.97;5002687;28;20069;-64
2024/03/06 04:21:27;;;;;;;6.32;3.50;;;;;;;-145.63;100.00;61273.97;5008887;28;20501;-66
2024/03/06 04:23:53;;;;;;;6.07;3.60;;;;;;;-145.63;100.00;61273.97;4994114;28;20030;-66
2024/03/06 04:26:19;;;;;;;10.95;3.70;;;;;;;-145.63;100.00;61273.97;5012307;28;20453;-66
2024/03/06 04:28:44;;;;;;;9.93;4.68;;;;;;;-145.63;100.00;61273.97;5013055;28;20041;-66
2024/03/06 04:31:10;;;;;;;10.00;4.78;;;;;;;-145.63;100.00;61273.97;5002903;28;20078;-66
2024/03/06 04:33:36;;;;;;;11.00;4.53;;;;;;;-145.63;100.00;61273.97;4998785;28;20046;-65
2024/03/06 04:36:05;;;;;;;10.95;4.30;;;;;;;-145.63;100.00;61273.97;5012686;28;20543;-66
2024/03/06 04:38:31;;;;;;;7.47;3.80;;;;;;;-145.63;100.00;61273.97;4993621;28;20077;-66
2024/03/06 04:40:57;;;;;;;5.30;3.60;;;;;;;-145.63;100.00;61273.97;4993585;28;20065;-64
2024/03/06 04:43:23;;;;;;;6.13;3.97;;;;;;;-145.63;100.00;61273.97;5004616;28;20438;-65
2024/03/06 04:45:49;;;;;;;5.65;3.38;;;;;;;-145.63;100.00;61273.97;5006484;28;20054;-65
2024/03/06 04:48:15;;;;;;;5.65;3.28;;;;;;;-145.63;100.00;61273.97;4995389;28;20057;-67
2024/03/06 04:50:41;;;;;;;6.28;3.58;;;;;;;-145.63;100.00;61273.97;5012563;28;20041;-66
2024/03/06 04:53:07;;;;;;;7.65;3.75;;;;;;;-145.63;100.00;61273.97;4995895;28;20057;-66
2024/03/06 04:55:32;;;;;;;7.22;3.75;;;;;;;-145.63;100.00;61273.97;5005922;28;20452;-66
2024/03/06 04:57:58;;;;;;;6.75;3.50;;;;;;;-145.63;100.00;61273.97;5004860;28;20031;-66
2024/03/06 05:00:24;;;;;;;11.23;3.67;;;;;;;-145.63;100.00;61273.97;5002095;28;20061;-67
2024/03/06 05:02:50;;;;;;;8.82;3.60;;;;;;;-145.63;100.00;61273.97;5004235;28;20033;-66
2024/03/06 05:05:16;;;;;;;9.75;3.88;;;;;;;-145.63;100.00;61273.97;5015605;28;20350;-66
2024/03/06 05:07:41;;;;;;;9.13;4.32;;;;;;;-145.63;100.00;61273.97;5006719;28;20053;-67
2024/03/06 05:10:08;;;;;;;6.20;3.67;;;;;;;-145.63;100.00;61273.97;5008617;28;20034;-66
2024/03/06 05:12:34;;;;;;;8.23;4.15;;;;;;;-145.63;100.00;61273.97;5001004;28;20037;-66
2024/03/06 05:15:00;;;;;;;8.13;3.33;;;;;;;-145.63;100.00;61273.97;4997748;28;20045;-65
2024/03/06 05:17:26;;;;;;;5.47;3.40;;;;;;;-145.63;100.00;61273.97;5015049;28;20056;-65
2024/03/06 05:19:51;;;;;;;7.93;3.80;;;;;;;-145.63;100.00;61273.97;5015113;28;20026;-64
2024/03/06 05:22:17;;;;;;;6.72;3.47;;;;;;;-145.63;100.00;61273.97;5006200;28;20045;-63
2024/03/06 05:24:44;;;;;;;8.68;3.75;;;;;;;-145.63;100.00;61273.97;5008815;28;20026;-65
2024/03/06 05:27:13;;;;;;;10.00;3.55;;;;;;;-145.63;100.00;61273.97;4998224;28;20030;-65
2024/03/06 05:29:39;;;;;;;7.53;3.60;;;;;;;-145.63;100.00;61273.97;5006740;28;20041;-64
2024/03/06 05:32:07;;;;;;;16.77;4.38;;;;;;;-145.63;100.00;61273.97;5007968;28;20030;-64
2024/03/06 05:34:33;;;;;;;6.78;4.07;;;;;;;-145.63;100.00;61273.97;5003894;28;20089;-64
2024/03/06 05:37:01;;;;;;;7.65;4.05;;;;;;;-145.63;100.00;61273.97;5003755;28;20032;-65
2024/03/06 05:39:27;;;;;;;12.23;4.28;;;;;;;-145.63;100.00;61273.97;5016038;28;20038;-63
2024/03/06 05:41:54;;;;;;;8.57;4.43;;;;;;;-145.63;100.00;61273.97;5016021;28;20040;-65
2024/03/06 05:44:20;;;;;;;10.00;3.90;;;;;;;-145.63;100.00;61273.97;5034642;28;20048;-66
2024/03/06 05:46:47;;;;;;;9.43;4.20;;;;;;;-145.63;100.00;61273.97;5021486;28;20068;-64
2024/03/06 05:49:15;;;;;;;10.48;4.18;;;;;;;-145.63;100.00;61273.97;5005775;28;20036;-64
2024/03/06 05:51:41;;;;;;;6.20;3.97;;;;;;;-145.63;100.00;61273.97;5014452;28;20045;-64
2024/03/06 05:54:08;;;;;;;7.88;4.00;;;;;;;-145.63;100.00;61273.97;5015307;28;20030;-66
2024/03/06 05:56:35;;;;;;;8.18;3.47;;;;;;;-145.63;100.00;61273.97;4996213;28;20084;-65
2024/03/06 05:59:04;;;;;;;8.77;3.50;;;;;;;-145.63;100.00;61273.97;5011975;28;20092;-63
2024/03/06 06:01:31;;;;;;;8.00;3.75;;;;;;;-145.63;100.00;61273.97;5011862;28;20119;-64
2024/03/06 06:03:56;;;;;;;8.75;3.65;;;;;;;-145.63;100.00;61273.97;5015157;28;20795;-65
2024/03/06 06:06:22;;;;;;;7.80;3.50;;;;;;;-145.63;100.00;61273.97;5012750;28;20113;-64
2024/03/06 06:08:48;;;;;;;9.23;4.03;;;;;;;-145.63;100.00;61273.97;4995600;28;20042;-64
2024/03/06 06:11:14;;;;;;;9.93;3.50;;;;;;;-145.63;100.00;61273.97;5012417;28;20363;-64
2024/03/06 06:13:40;;;;;;;7.93;3.72;;;;;;;-145.63;100.00;61273.97;5002409;28;20388;-63
2024/03/06 06:16:06;;;;;;;7.30;2.97;;;;;;;-145.63;100.00;61273.97;5003781;28;20030;-63
2024/03/06 06:18:33;;;;;;;7.60;3.30;;;;;;;-145.63;100.00;61273.97;5011941;28;20061;-64
2024/03/06 06:20:59;;;;;;;5.35;3.10;;;;;;;-145.63;100.00;61273.97;4995281;28;20468;-65
2024/03/06 06:23:25;;;;;;;10.85;3.80;;;;;;;-145.63;100.00;61273.97;5014315;28;20041;-65
2024/03/06 06:25:51;;;;;;;4.93;2.90;;;;;;;-145.63;100.00;61273.97;5000802;28;20045;-65
2024/03/06 06:28:17;;;;;;;14.65;3.55;;;;;;;-145.63;100.00;61273.97;5004688;28;20043;-65
2024/03/06 06:30:43;;;;;;;8.55;3.40;;;;;;;-145.63;100.00;61273.97;5010175;28;20034;-65
2024/03/06 06:33:09;;;;;;;9.27;3.80;;;;;;;-145.63;100.00;61273.97;4996010;28;20181;-65
2024/03/06 06:35:35;;;;;;;11.82;4.07;;;;;;;-145.63;100.00;61273.97;5014370;28;20037;-64
2024/03/06 06:38:02;;;;;;;6.20;3.00;;;;;;;-145.63;100.00;61273.97;4999382;28;20035;-64
2024/03/06 06:40:28;;;;;;;5.35;3.00;;;;;;;-145.63;100.00;61273.97;5006111;28;20436;-66
2024/03/06 06:42:54;;;;;;;8.65;3.15;;;;;;;-145.63;100.00;61273.97;5014674;28;20061;-66
2024/03/06 06:45:21;;;;;;;6.47;3.30;;;;;;;-145.63;100.00;61273.97;5013794;28;20084;-64
2024/03/06 06:47:48;;;;;;;12.38;4.07;;;;;;;-145.63;100.00;61273.97;4995216;28;20065;-65
2024/03/06 06:50:14;;;;;;;12.45;6.03;;;;;;;-145.63;100.00;61273.97;4995003;28;20034;-66
2024/03/06 06:52:41;;;;;;;9.02;3.03;;;;;;;-145.63;100.00;61273.97;5019875;28;20041;-65
2024/03/06 06:55:09;;;;;;;5.47;3.28;;;;;;;-145.63;100.00;61273.97;5026444;28;20161;-66
2024/03/06 06:57:34;;;;;;;6.88;2.80;;;;;;;-145.63;100.00;61273.97;5010892;28;20453;-65
2024/03/06 07:00:10;;;;;;;5.90;2.95;;;;;;;-145.63;100.00;61273.97;4994899;28;20125;-65
2024/03/06 07:02:42;;;;;;;8.05;3.55;;;;;;;-145.63;100.00;61273.97;5011348;28;20034;-64
2024/03/06 07:05:10;;;;;;;7.50;3.67;;;;;;;-145.63;100.00;61273.97;5014254;28;20041;-65
2024/03/06 07:07:36;;;;;;;11.65;3.00;;;;;;;-145.63;100.00;61273.97;5013982;28;20017;-66
2024/03/06 07:10:03;;;;;;;5.53;2.92;;;;;;;-145.63;100.00;61273.97;5021204;28;20060;-65
2024/03/06 07:12:30;;;;;;;8.88;3.13;;;;;;;-145.63;100.00;61273.97;5014836;28;20139;-65
2024/03/06 07:14:56;;;;;;;6.28;3.55;;;;;;;-145.63;100.00;61273.97;5014087;28;20030;-65
2024/03/06 07:17:21;;;;;;;12.90;3.50;;;;;;;-145.63;100.00;61273.97;4995861;28;20026;-65
2024/03/06 07:19:47;;;;;;;12.43;3.63;;;;;;;-145.63;100.00;61273.97;5007405;28;20411;-66
2024/03/06 07:22:13;;;;;;;11.73;4.30;;;;;;;-145.63;100.00;61273.97;5013828;28;20037;-64
2024/03/06 07:24:38;;;;;;;14.25;4.75;;;;;;;-145.63;100.00;61273.97;5010214;28;20034;-69
2024/03/06 07:27:04;;;;;;;8.20;4.63;;;;;;;-145.63;100.00;61273.97;5009283;28;20109;-65
2024/03/06 07:29:30;;;;;;;11.07;5.05;;;;;;;-145.63;100.00;61273.97;5013107;28;20066;-65
2024/03/06 07:31:56;;;;;;;7.43;4.70;;;;;;;-145.63;100.00;61273.97;4999454;28;20057;-65
2024/03/06 07:34:21;;;;;;;11.18;4.50;;;;;;;-145.63;100.00;61273.97;5003486;28;20103;-65
2024/03/06 07:36:48;;;;;;;9.57;4.30;;;;;;;-145.63;100.00;61273.97;5009050;28;20070;-65
2024/03/06 07:39:16;;;;;;;10.40;4.68;;;;;;;-145.63;100.00;61273.97;4994275;28;20037;-65
2024/03/06 07:41:42;;;;;;;13.55;5.22;;;;;;;-145.63;100.00;61273.97;5013984;28;20084;-64
2024/03/06 07:44:08;;;;;;;10.07;3.40;;;;;;;-145.63;100.00;61273.97;5008179;28;20018;-65
2024/03/06 07:46:35;;;;;;;8.75;3.65;;;;;;;-145.63;100.00;61273.97;5004754;28;20051;-65
2024/03/06 07:49:02;;;;;;;9.15;4.10;;;;;;;-145.63;100.00;61273.97;5006975;28;20041;-66
2024/03/06 07:51:32;;;;;;;7.47;3.90;;;;;;;-145.63;100.00;61273.97;5009840;28;20041;-65
2024/03/06 07:53:59;;;;;;;10.27;3.97;;;;;;;-145.63;100.00;61273.97;5014454;28;20069;-64
2024/03/06 07:56:25;;;;;;;10.90;3.88;;;;;;;-145.63;100.00;61273.97;5006485;28;20040;-65
2024/03/06 07:58:51;;;;;;;6.78;3.90;;;;;;;-145.63;100.00;61273.97;5013542;28;20374;-66
2024/03/06 08:01:17;;;;;;;8.80;4.15;;;;;;;-145.63;100.00;61273.97;5009094;28;20034;-66
2024/03/06 08:03:44;;;;;;;11.13;4.10;;;;;;;-145.63;100.00;61273.97;5013428;28;20045;-65
2024/03/06 08:06:10;;;;;;;12.07;3.60;;;;;;;-145.63;100.00;61273.97;5013242;28;20034;-65
2024/03/06 08:08:36;;;;;;;5.60;3.00;;;;;;;-145.63;100.00;61273.97;4995214;28;20062;-66
2024/03/06 08:11:03;;;;;;;9.65;3.80;;;;;;;-145.63;100.00;61273.97;5012870;28;20367;-64
2024/03/06 08:13:29;;;;;;;9.70;3.45;;;;;;;-145.63;100.00;61273.97;5011591;28;20063;-65
2024/03/06 08:15:55;;;;;;;11.27;3.67;;;;;;;-145.63;100.00;61273.97;5012099;28;20030;-65
2024/03/06 08:18:20;;;;;;;7.78;2.97;;;;;;;-145.63;100.00;61273.97;5012080;28;20066;-65
2024/03/06 08:20:46;;;;;;;8.15;3.20;;;;;;;-145.63;100.00;61273.97;5010105;28;20065;-65
2024/03/06 08:23:12;;;;;;;7.20;3.05;;;;;;;-145.63;100.00;61273.97;5013056;28;20045;-65
2024/03/06 08:25:37;;;;;;;8.88;2.83;;;;;;;-145.63;100.00;61273.97;5013213;28;20037;-65
2024/03/06 08:28:05;;;;;;;9.98;2.75;;;;;;;-145.63;100.00;61273.97;5016321;28;20065;-65
2024/03/06 08:30:31;;;;;;;6.65;2.83;;;;;;;-145.63;100.00;61273.97;4998605;28;20430;-65
2024/03/06 08:32:57;;;;;;;5.78;3.08;;;;;;;-145.63;100.00;61273.97;5012545;28;20058;-64
2024/03/06 08:35:23;;;;;;;6.50;2.97;;;;;;;-145.63;100.00;61273.97;5011896;28;20045;-64
2024/03/06 08:37:50;;;;;;;7.47;3.58;;;;;;;-145.63;100.00;61273.97;5000738;28;20029;-64
2024/03/06 08:40:20;;;;;;;9.05;3.67;;;;;;;-145.63;100.00;61273.97;5013414;28;20450;-65
2024/03/06 08:42:52;;;;;;;6.57;3.88;;;;;;;-145.63;100.00;61273.97;5013165;28;20091;-65
2024/03/06 08:45:18;;;;;;;9.73;4.18;;;;;;;-145.63;100.00;61273.97;5014747;28;20030;-65
2024/03/06 08:47:45;;;;;;;9.10;3.58;;;;;;;-145.63;100.00;61273.97;4997888;28;20066;-65
2024/03/06 08:50:12;;;;;;;11.52;4.10;;;;;;;-145.63;100.00;61273.97;5013034;28;20034;-65
2024/03/06 08:52:39;;;;;;;9.70;3.75;;;;;;;-145.63;100.00;61273.97;5017418;28;20434;-65
2024/03/06 08:55:05;;;;;;;8.95;2.92;;;;;;;-145.63;100.00;61273.97;5010569;28;20030;-66
2024/03/06 08:57:35;;;;;;;6.95;2.95;;;;;;;-145.63;100.00;61273.97;5010401;28;20399;-66
2024/03/06 09:00:00;;;;;;;6.75;3.13;;;;;;;-145.63;100.00;61273.97;5016846;28;20053;-64
2024/03/06 09:02:26;;;;;;;8.88;2.83;;;;;;;-145.63;100.00;61273.97;5015192;28;20068;-64
2024/03/06 09:04:52;;;;;;;10.18;3.33;;;;;;;-145.63;100.00;61273.97;5003385;28;20045;-65
2024/03/06 09:07:19;;;;;;;7.57;2.60;;;;;;;-145.63;100.00;61273.97;5004201;28;20080;-64
2024/03/06 09:09:44;;;;;;;9.48;2.65;;;;;;;-145.63;100.00;61273.97;5012055;28;20038;-64
2024/03/06 09:12:10;;;;;;;8.75;2.70;;;;;;;-145.63;100.00;61273.97;5013327;28;20168;-65
2024/03/06 09:14:38;;;;;;;6.20;2.47;;;;;;;-145.63;100.00;61273.97;5009221;28;20498;-64
2024/03/06 09:17:05;;;;;;;8.43;2.88;;;;;;;-145.63;100.00;61273.97;5015126;28;20022;-65
2024/03/06 09:19:32;;;;;;;5.40;3.20;;;;;;;-145.63;100.00;61273.97;5007010;28;20045;-65
2024/03/06 09:21:58;;;;;;;5.57;2.40;;;;;;;-145.63;100.00;61273.97;5010710;28;20080;-64
2024/03/06 09:24:25;;;;;;;11.07;2.45;;;;;;;-145.63;100.00;61273.97;5014076;28;20061;-65
2024/03/06 09:26:51;;;;;;;5.43;2.72;;;;;;;-145.63;100.00;61273.97;5012035;28;20070;-65
2024/03/06 09:29:17;;;;;;;4.50;2.72;;;;;;;-145.63;100.00;61273.97;5010558;28;20042;-66
2024/03/06 09:31:43;;;;;;;5.60;3.50;;;;;;;-145.63;100.00;61273.97;5006634;28;20042;-63
2024/03/06 09:34:12;;;;;;;6.07;2.70;;;;;;;-145.63;100.00;61273.97;5013139;28;20424;-66
2024/03/06 09:36:40;;;;;;;5.40;2.40;;;;;;;-145.63;100.00;61273.97;5015636;28;20567;-65
2024/03/06 09:39:07;;;;;;;5.03;2.30;;;;;;;-145.63;100.00;61273.97;5014465;28;20038;-64
2024/03/06 09:41:33;;;;;;;2.85;1.95;;;;;;;-145.63;100.00;61273.97;5013190;28;20034;-65
2024/03/06 09:44:00;;;;;;;3.85;2.22;;;;;;;-145.63;100.00;61273.97;5013511;28;20029;-67
2024/03/06 09:46:29;;;;;;;10.20;2.50;;;;;;;-145.63;100.00;61273.97;5015260;28;20064;-65
2024/03/06 09:48:55;;;;;;;6.40;2.63;;;;;;;-145.63;100.00;61273.97;5015233;28;20045;-71
2024/03/06 09:51:21;;;;;;;7.93;2.40;;;;;;;-145.63;100.00;61273.97;5009888;28;20029;-65
2024/03/06 09:53:51;;;;;;;5.43;2.17;;;;;;;-145.63;100.00;61273.97;5009924;28;20037;-66
2024/03/06 09:56:19;;;;;;;5.85;2.55;;;;;;;-145.63;100.00;61273.97;4998838;28;20061;-65
2024/03/06 09:58:45;;;;;;;9.38;3.15;;;;;;;-145.63;100.00;61273.97;5006814;28;20231;-67
2024/03/06 10:01:13;;;;;;;5.93;2.78;;;;;;;-145.63;100.00;61273.97;5013254;28;20025;-65
2024/03/06 10:03:40;;;;;;;6.32;2.85;;;;;;;-145.63;100.00;61273.97;5010178;28;20031;-64
2024/03/06 10:06:09;;;;;;;5.82;2.78;;;;;;;-145.63;100.00;61273.97;5015148;28;20076;-65
2024/03/06 10:08:37;;;;;;;8.48;3.20;;;;;;;-145.63;100.00;61273.97;5014644;28;20041;-65
2024/03/06 10:11:04;;;;;;;5.40;2.45;;;;;;;-145.63;100.00;61273.97;5009181;28;20041;-65
2024/03/06 10:13:30;;;;;;;9.20;2.47;;;;;;;-145.63;100.00;61273.97;5013597;28;20037;-66
2024/03/06 10:16:09;;;;;;;4.75;2.63;;;;;;;-145.63;100.00;61273.97;5013497;28;20037;-65
2024/03/06 10:18:38;;;;;;;7.30;2.80;;;;;;;-145.63;100.00;61273.97;4997484;28;20113;-66
2024/03/06 10:21:05;;;;;;;8.38;3.40;;;;;;;-145.63;100.00;61273.97;5015273;28;20030;-67
2024/03/06 10:23:31;;;;;;;7.30;3.28;;;;;;;-145.63;100.00;61273.97;5014913;28;20065;-66
2024/03/06 10:25:57;;;;;;;4.90;2.70;;;;;;;-145.63;100.00;61273.97;5004738;28;20022;-66
2024/03/06 10:28:23;;;;;;;6.45;2.80;;;;;;;-145.63;100.00;61273.97;5005688;28;20079;-68
2024/03/06 10:30:51;;;;;;;6.10;2.78;;;;;;;-145.63;100.00;61273.97;4998904;28;20542;-65
2024/03/06 10:33:18;;;;;;;5.82;2.08;;;;;;;-145.63;100.00;61273.97;5001393;28;20042;-66
2024/03/06 10:35:47;;;;;;;10.50;2.85;;;;;;;-145.63;100.00;61273.97;5012357;28;20065;-65
2024/03/06 10:38:15;;;;;;;6.18;2.53;;;;;;;-145.63;100.00;61273.97;5000369;28;20069;-65
2024/03/06 10:40:42;;;;;;;6.72;2.70;;;;;;;-145.63;100.00;61273.97;5005914;28;20041;-65
2024/03/06 10:43:09;;;;;;;7.05;2.47;;;;;;;-145.63;100.00;61273.97;5014280;28;20069;-65
2024/03/06 10:45:47;;;;;;;5.05;2.50;;;;;;;-145.63;100.00;61273.97;5012808;28;20034;-65
2024/03/06 10:48:14;;;;;;;4.72;2.67;;;;;;;-145.63;100.00;61273.97;4994894;28;20037;-64
2024/03/06 10:50:43;;;;;;;6.25;2.92;;;;;;;-145.63;100.00;61273.97;5013403;28;20036;-65
2024/03/06 10:53:13;;;;;;;6.43;3.20;;;;;;;-145.63;100.00;61273.97;5014287;28;20089;-65
2024/03/06 10:55:40;;;;;;;7.53;2.85;;;;;;;-145.63;100.00;61273.97;5008488;28;20388;-67
2024/03/06 10:58:09;;;;;;;5.72;2.58;;;;;;;-145.63;100.00;61273.97;5014342;28;20546;-66
2024/03/06 11:00:38;;;;;;;4.85;2.50;;;;;;;-145.63;100.00;61273.97;5012882;28;20030;-65
2024/03/06 11:03:09;;;;;;;11.88;3.63;;;;;;;-145.63;100.00;61273.97;5013237;28;20042;-67
2024/03/06 11:05:41;;;;;;;9.00;3.15;;;;;;;-145.63;100.00;61273.97;5005342;28;20034;-65